Terminal Aerodrome Forecast
Issued by NWS

Home | Current Version | Previous Version | Text Only | Print | Product List | Glossary On
Versions: 1 2 3 4 5 6 7 8 9 10 11 12 13 14 15 16 17 18 19 20 21 22 23 24 25 26 27 28 29
000
FTUS45 KGJT 041120
TAFMTJ
TAF
KMTJ 041120Z 0412/0512 16005KT P6SM VCSH OVC100
      TEMPO 0413/0415 VRB10G20KT -TSRA SCT080CB
     FM041600 33008KT P6SM BKN110
     FM042000 33010KT P6SM VCTS SCT080CB BKN250
      TEMPO 0421/0424 VRB15G30KT -TSRA
     FM050000 15010KT P6SM OVC100
     FM050700 16006KT P6SM BKN120=

USA.gov is the U.S. government's official web portal to all federal, state and local government web resources and services.